Time;durP1;ratioP1;P1;durP2;ratioP2;P2;SDS_P1;SDS_P2;PMS_P1;PMS_P2;Temp;Humidity;BMP_temperature;BMP_pressure;BME280_temperature;BME280_humidity;BME280_pressure;Samples;Min_cycle;Max_cycle;Signal;HPM_P1;HPM_P2
2022/11/12 00:00:19;;;;;;;;;;;;;;;5.54;100.00;98044.78;5056804;28;19968;-72
2022/11/12 00:02:45;;;;;;;;;;;;;;;5.55;100.00;98046.44;5061481;28;20045;-73
2022/11/12 00:05:11;;;;;;;;;;;;;;;5.54;100.00;98040.41;5067567;28;20014;-72
2022/11/12 00:07:37;;;;;;;;;;;;;;;5.56;100.00;98041.06;5066446;28;20366;-72
2022/11/12 00:10:03;;;;;;;;;;;;;;;5.59;100.00;98040.00;5062101;28;19960;-72
2022/11/12 00:12:29;;;;;;;;;;;;;;;5.60;100.00;98041.63;5065657;28;20006;-73
2022/11/12 00:14:55;;;;;;;;;;;;;;;5.52;100.00;98042.34;5061710;28;19953;-72
2022/11/12 00:17:21;;;;;;;;;;;;;;;5.41;100.00;98040.75;5058825;28;19947;-72
2022/11/12 00:19:47;;;;;;;;;;;;;;;5.33;100.00;98048.47;5060320;28;19955;-72
2022/11/12 00:22:14;;;;;;;;;;;;;;;5.29;100.00;98052.31;5064426;28;19993;-72
2022/11/12 00:24:39;;;;;;;;;;;;;;;5.32;100.00;98053.84;5064981;28;20535;-73
2022/11/12 00:27:05;;;;;;;;;;;;;;;5.34;100.00;98038.91;5063000;28;19977;-73
2022/11/12 00:29:31;;;;;;;;;;;;;;;5.35;100.00;98045.72;5061277;28;19957;-72
2022/11/12 00:31:57;;;;;;;;;;;;;;;5.36;100.00;98034.38;5063635;28;20410;-72
2022/11/12 00:34:23;;;;;;;;;;;;;;;5.34;100.00;98037.13;5060338;28;19995;-72
2022/11/12 00:36:49;;;;;;;;;;;;;;;5.35;100.00;98032.72;5065587;28;19958;-72
2022/11/12 00:39:15;;;;;;;;;;;;;;;5.37;100.00;98039.41;5066723;28;19959;-72
2022/11/12 00:41:40;;;;;;;;;;;;;;;5.28;100.00;98046.31;5063374;28;20002;-73
2022/11/12 00:44:06;;;;;;;;;;;;;;;5.25;100.00;98051.81;5061359;28;19952;-72
2022/11/12 00:46:32;;;;;;;;;;;;;;;5.27;100.00;98049.88;5066651;28;20001;-73
2022/11/12 00:48:58;;;;;;;;;;;;;;;5.33;100.00;98051.06;5068353;28;20002;-72
2022/11/12 00:51:24;;;;;;;;;;;;;;;5.39;100.00;98037.47;5071888;28;19961;-72
2022/11/12 00:53:50;;;;;;;;;;;;;;;5.44;100.00;98045.69;5062511;28;19955;-72
2022/11/12 00:56:16;;;;;;;;;;;;;;;5.48;100.00;98036.63;5069371;28;19962;-72
2022/11/12 00:58:42;;;;;;;;;;;;;;;5.49;100.00;98040.03;5071382;28;19955;-72
2022/11/12 01:01:12;;;;;;;;;;;;;;;5.48;100.00;98036.63;5065948;28;19955;-73
2022/11/12 01:03:38;;;;;;;;;;;;;;;5.46;100.00;98027.34;5063379;28;19956;-73
2022/11/12 01:06:05;;;;;;;;;;;;;;;5.46;100.00;98030.75;5061363;28;19971;-73
2022/11/12 01:08:31;;;;;;;;;;;;;;;5.45;100.00;98033.50;5070090;28;19975;-73
2022/11/12 01:11:24;;;;;;;;;;;;;;;5.38;100.00;98037.66;5064710;28;19952;-72
2022/11/12 01:13:55;;;;;;;;;;;;;;;5.35;100.00;98027.53;5056379;28;19959;-72
2022/11/12 01:16:22;;;;;;;;;;;;;;;5.37;100.00;98044.63;5065738;28;19973;-73
2022/11/12 01:18:51;;;;;;;;;;;;;;;5.39;100.00;98040.09;5069279;28;19952;-73
2022/11/12 01:21:17;;;;;;;;;;;;;;;5.39;100.00;98032.28;5066020;28;19964;-73
2022/11/12 01:23:43;;;;;;;;;;;;;;;5.39;100.00;98024.47;5043508;28;19955;-73
2022/11/12 01:26:10;;;;;;;;;;;;;;;5.38;100.00;98038.47;5064183;28;20070;-73
2022/11/12 01:28:36;;;;;;;;;;;;;;;5.40;100.00;98026.13;5067145;28;19953;-72
2022/11/12 01:31:13;;;;;;;;;;;;;;;5.40;100.00;98020.13;5071297;28;19963;-72
2022/11/12 01:33:39;;;;;;;;;;;;;;;5.40;100.00;98020.13;5043375;28;20322;-73
2022/11/12 01:36:05;;;;;;;;;;;;;;;5.41;100.00;98019.94;5061391;28;19960;-73
2022/11/12 01:38:35;;;;;;;;;;;;;;;5.42;100.00;98016.38;5067507;28;19979;-73
2022/11/12 01:41:01;;;;;;;;;;;;;;;5.43;100.00;98007.59;5066029;28;19954;-73
2022/11/12 01:43:27;;;;;;;;;;;;;;;5.35;100.00;98011.91;5071065;28;19959;-73
2022/11/12 01:45:53;;;;;;;;;;;;;;;5.21;100.00;98008.03;5046249;28;19968;-73
2022/11/12 01:48:32;;;;;;;;;;;;;;;5.14;100.00;98002.56;5060673;28;19962;-73
2022/11/12 01:50:58;;;;;;;;;;;;;;;5.13;100.00;97994.94;5069054;28;20427;-73
2022/11/12 01:53:25;;;;;;;;;;;;;;;5.13;100.00;97990.53;5068077;28;19951;-72
2022/11/12 01:55:52;;;;;;;;;;;;;;;5.14;100.00;97986.97;5065378;28;19948;-73
2022/11/12 01:58:20;;;;;;;;;;;;;;;5.18;100.00;97987.50;5061308;28;20048;-72
2022/11/12 02:00:46;;;;;;;;;;;;;;;5.15;100.00;97978.22;5063292;28;19949;-73
2022/11/12 02:03:16;;;;;;;;;;;;;;;5.11;100.00;97984.66;5071821;28;19947;-73
2022/11/12 02:05:42;;;;;;;;;;;;;;;5.03;100.00;97984.56;5064131;28;19962;-73
2022/11/12 02:08:10;;;;;;;;;;;;;;;4.99;100.00;97988.41;5066442;28;20365;-73
2022/11/12 02:10:38;;;;;;;;;;;;;;;5.01;100.00;97989.09;5061644;28;19951;-73
2022/11/12 02:15:48;;;;;;;;;;;;;;;5.01;100.00;97965.69;5069785;28;19955;-73
2022/11/12 02:18:14;;;;;;;;;;;;;;;5.01;100.00;97970.88;5066849;28;19946;-73
2022/11/12 02:20:40;;;;;;;;;;;;;;;5.04;100.00;97976.63;5066147;28;19961;-72
2022/11/12 02:23:07;;;;;;;;;;;;;;;4.99;100.00;97973.63;5064167;28;19947;-73
2022/11/12 02:25:33;;;;;;;;;;;;;;;4.96;100.00;97973.13;5060659;28;19977;-72
2022/11/12 02:27:59;;;;;;;;;;;;;;;4.86;100.00;97980.94;5065579;28;19944;-73
2022/11/12 02:30:39;;;;;;;;;;;;;;;4.80;100.00;97978.94;5065216;28;19948;-73
2022/11/12 02:33:05;;;;;;;;;;;;;;;4.70;100.00;97980.75;5058287;28;19951;-73
2022/11/12 02:35:31;;;;;;;;;;;;;;;4.64;100.00;97977.75;5048733;28;19979;-73
2022/11/12 02:37:57;;;;;;;;;;;;;;;4.61;100.00;97978.03;5045278;28;19961;-73
2022/11/12 02:40:24;;;;;;;;;;;;;;;4.63;100.00;97972.69;5064488;28;19960;-73
2022/11/12 02:42:49;;;;;;;;;;;;;;;4.63;100.00;97968.31;5060852;28;19945;-73
2022/11/12 02:45:16;;;;;;;;;;;;;;;4.61;100.00;97972.84;5065227;28;20434;-73
2022/11/12 02:47:42;;;;;;;;;;;;;;;4.60;100.00;97971.22;5064919;28;20377;-73
2022/11/12 02:50:08;;;;;;;;;;;;;;;4.63;100.00;97973.50;5061945;28;19998;-73
2022/11/12 02:52:34;;;;;;;;;;;;;;;4.66;100.00;97972.41;5063044;28;19954;-73
2022/11/12 02:55:00;;;;;;;;;;;;;;;4.71;100.00;97965.00;5066660;28;19950;-73
2022/11/12 02:57:28;;;;;;;;;;;;;;;4.74;100.00;97966.50;5069317;28;20375;-72
2022/11/12 02:59:54;;;;;;;;;;;;;;;4.77;100.00;97967.03;5064516;28;19945;-72
2022/11/12 03:02:20;;;;;;;;;;;;;;;4.80;100.00;97964.16;5064774;28;20037;-72
2022/11/12 03:04:45;;;;;;;;;;;;;;;4.83;100.00;97968.22;5062798;28;20413;-72
2022/11/12 03:07:11;;;;;;;;;;;;;;;4.84;100.00;97973.28;5057893;28;20414;-73
2022/11/12 03:09:37;;;;;;;;;;;;;;;4.79;100.00;97967.72;5073390;28;19982;-72
2022/11/12 03:12:03;;;;;;;;;;;;;;;4.75;100.00;97968.16;5059720;28;19966;-71
2022/11/12 03:14:29;;;;;;;;;;;;;;;4.66;100.00;97968.03;5067206;28;19982;-71
2022/11/12 03:16:55;;;;;;;;;;;;;;;4.64;100.00;97964.78;5065192;28;20446;-72
2022/11/12 03:19:21;;;;;;;;;;;;;;;4.66;100.00;97968.03;5063803;28;20370;-72
2022/11/12 03:21:47;;;;;;;;;;;;;;;4.66;100.00;97965.44;5059486;28;19950;-72
2022/11/12 03:24:12;;;;;;;;;;;;;;;4.70;100.00;97962.56;5060972;28;19960;-72
2022/11/12 03:26:38;;;;;;;;;;;;;;;4.57;100.00;97953.28;5060918;28;19977;-72
2022/11/12 03:29:04;;;;;;;;;;;;;;;4.41;100.00;97972.09;5064695;28;19958;-72
2022/11/12 03:31:30;;;;;;;;;;;;;;;4.35;100.00;97974.44;5064381;28;19957;-73
2022/11/12 03:33:56;;;;;;;;;;;;;;;4.34;100.00;97970.19;5059872;28;19959;-72
2022/11/12 03:36:22;;;;;;;;;;;;;;;4.31;100.00;97968.69;5059306;28;19956;-72
2022/11/12 03:38:48;;;;;;;;;;;;;;;4.35;100.00;97972.66;5057270;28;20002;-73
2022/11/12 03:41:13;;;;;;;;;;;;;;;4.39;100.00;97968.81;5065797;28;20487;-73
2022/11/12 03:43:39;;;;;;;;;;;;;;;4.39;100.00;97980.97;5063896;28;20381;-72
2022/11/12 03:46:05;;;;;;;;;;;;;;;4.32;100.00;97982.50;5063612;28;20023;-73
2022/11/12 03:48:31;;;;;;;;;;;;;;;4.20;100.00;97974.03;5066236;28;19951;-72
2022/11/12 03:50:57;;;;;;;;;;;;;;;4.18;100.00;97974.19;5064297;28;19953;-72
2022/11/12 03:53:23;;;;;;;;;;;;;;;4.21;100.00;97975.69;5060574;28;20430;-73
2022/11/12 03:55:49;;;;;;;;;;;;;;;4.27;100.00;97978.53;5067557;28;19985;-72
2022/11/12 03:58:15;;;;;;;;;;;;;;;4.34;100.00;97972.78;5064331;28;20365;-71
2022/11/12 04:00:41;;;;;;;;;;;;;;;4.64;100.00;97977.75;5060802;28;19993;-72
2022/11/12 04:03:07;;;;;;;;;;;;;;;4.91;100.00;97975.31;5043994;28;19955;-72
2022/11/12 04:08:37;;;;;;;;;;;;;;;4.92;100.00;97971.78;5062116;28;19985;-72
2022/11/12 04:11:07;;;;;;;;;;;;;;;4.87;100.00;97969.56;5040128;28;19959;-73
2022/11/12 04:13:33;;;;;;;;;;;;;;;4.83;100.00;97968.22;5065798;28;19985;-72
2022/11/12 04:21:53;;;;;;;;;;;;;;;4.69;100.00;97964.34;5051378;28;19958;-72
2022/11/12 04:27:04;;;;;;;;;;;;;;;4.61;100.00;97957.25;5069702;28;20411;-72
2022/11/12 04:32:14;;;;;;;;;;;;;;;4.54;100.00;97969.19;5049551;28;19963;-73
2022/11/12 04:34:40;;;;;;;;;;;;;;;4.47;100.00;97976.72;5057603;28;19956;-72
2022/11/12 04:37:06;;;;;;;;;;;;;;;4.43;100.00;97970.19;5066772;28;19949;-73
2022/11/12 04:39:32;;;;;;;;;;;;;;;4.39;100.00;97962.78;5069930;28;19965;-72
2022/11/12 04:47:37;;;;;;;;;;;;;;;4.21;100.00;97963.50;5056347;28;19951;-72
2022/11/12 04:50:05;;;;;;;;;;;;;;;4.18;100.00;97958.63;5059139;28;19955;-72
2022/11/12 04:52:31;;;;;;;;;;;;;;;4.16;100.00;97959.69;5066217;28;19958;-72
2022/11/12 04:54:57;;;;;;;;;;;;;;;4.13;100.00;97954.78;5065113;28;19948;-72
2022/11/12 04:57:23;;;;;;;;;;;;;;;4.15;100.00;97948.50;5068492;28;19952;-72
2022/11/12 04:59:49;;;;;;;;;;;;;;;4.19;100.00;97944.66;5068455;28;19954;-72
2022/11/12 05:02:16;;;;;;;;;;;;;;;4.24;100.00;97952.03;5050764;28;20046;-72
2022/11/12 05:04:42;;;;;;;;;;;;;;;4.25;100.00;97940.69;5061693;28;19961;-72
2022/11/12 05:07:08;;;;;;;;;;;;;;;4.26;100.00;97943.16;5068744;28;19971;-72
2022/11/12 05:09:34;;;;;;;;;;;;;;;4.31;100.00;97949.72;5068241;28;20026;-73
2022/11/12 05:12:00;;;;;;;;;;;;;;;4.31;100.00;97950.53;5067617;28;19959;-73
2022/11/12 05:14:26;;;;;;;;;;;;;;;4.34;100.00;97954.59;5064279;28;20348;-73
2022/11/12 05:16:51;;;;;;;;;;;;;;;4.35;100.00;97957.06;5064417;28;20013;-72
2022/11/12 05:19:18;;;;;;;;;;;;;;;4.31;100.00;97954.91;5072479;28;19952;-72
2022/11/12 05:24:29;;;;;;;;;;;;;;;4.10;100.00;97968.88;5061581;28;20488;-73
2022/11/12 05:26:55;;;;;;;;;;;;;;;4.01;100.00;97961.91;5069037;28;19959;-73
2022/11/12 05:29:21;;;;;;;;;;;;;;;3.99;100.00;97979.41;5067906;28;19961;-73
2022/11/12 05:31:46;;;;;;;;;;;;;;;3.99;100.00;97962.06;5056164;28;19961;-73
2022/11/12 05:34:12;;;;;;;;;;;;;;;3.98;100.00;97970.78;5047285;28;19959;-73
2022/11/12 05:36:38;;;;;;;;;;;;;;;3.97;100.00;97973.53;5056684;28;20041;-72
2022/11/12 05:39:04;;;;;;;;;;;;;;;3.98;100.00;97967.38;5052579;28;20072;-73
2022/11/12 05:41:30;;;;;;;;;;;;;;;4.02;100.00;97960.97;5065923;28;19957;-72
2022/11/12 05:43:56;;;;;;;;;;;;;;;4.04;100.00;97956.44;5072199;28;19957;-73
2022/11/12 05:46:22;;;;;;;;;;;;;;;4.10;100.00;97963.69;5068271;28;20348;-72
2022/11/12 05:48:48;;;;;;;;;;;;;;;4.13;100.00;97959.97;5064180;28;19948;-72
2022/11/12 05:51:14;;;;;;;;;;;;;;;4.07;100.00;97961.34;5063363;28;19981;-71
2022/11/12 05:53:40;;;;;;;;;;;;;;;4.01;100.00;97964.50;5064553;28;20341;-72
2022/11/12 05:56:07;;;;;;;;;;;;;;;3.98;100.00;97965.59;5067275;28;19958;-72
2022/11/12 05:58:33;;;;;;;;;;;;;;;3.97;100.00;97970.94;5068655;28;19953;-72
2022/11/12 06:00:59;;;;;;;;;;;;;;;3.96;100.00;97964.91;5059585;28;19965;-72
2022/11/12 06:03:25;;;;;;;;;;;;;;;3.95;100.00;97971.09;5075444;28;20323;-72
2022/11/12 06:05:51;;;;;;;;;;;;;;;3.97;100.00;97978.72;5065347;28;19993;-72
2022/11/12 06:08:17;;;;;;;;;;;;;;;4.00;100.00;97976.66;5066111;28;19996;-72
2022/11/12 06:10:53;;;;;;;;;;;;;;;4.04;100.00;97978.03;5066022;28;19957;-72
2022/11/12 06:13:20;;;;;;;;;;;;;;;4.08;100.00;97978.59;5064333;28;19953;-72
2022/11/12 06:15:46;;;;;;;;;;;;;;;4.12;100.00;97986.91;5068014;28;19955;-72
2022/11/12 06:18:12;;;;;;;;;;;;;;;4.13;100.00;97989.34;5066094;28;19965;-72
2022/11/12 06:20:38;;;;;;;;;;;;;;;4.12;100.00;97994.72;5061938;28;20406;-73
2022/11/12 06:23:04;;;;;;;;;;;;;;;4.10;100.00;97994.03;5063371;28;20048;-72
2022/11/12 06:25:30;;;;;;;;;;;;;;;4.13;100.00;97997.16;5064250;28;19966;-72
2022/11/12 06:27:56;;;;;;;;;;;;;;;4.15;100.00;97995.22;5064353;28;19961;-72
2022/11/12 06:30:22;;;;;;;;;;;;;;;4.18;100.00;98001.91;5064309;28;19950;-72
2022/11/12 06:32:49;;;;;;;;;;;;;;;4.17;100.00;97998.50;5063352;28;19987;-72
2022/11/12 06:35:16;;;;;;;;;;;;;;;4.11;100.00;98000.84;5068770;28;20336;-72
2022/11/12 06:37:41;;;;;;;;;;;;;;;4.08;100.00;97999.34;5068773;28;19954;-72
2022/11/12 06:40:07;;;;;;;;;;;;;;;4.00;100.00;98000.03;5064696;28;19959;-73
2022/11/12 06:42:33;;;;;;;;;;;;;;;3.96;100.00;98000.44;5063048;28;19960;-73
2022/11/12 06:44:59;;;;;;;;;;;;;;;3.97;100.00;98005.50;5067767;28;19951;-73
2022/11/12 06:47:25;;;;;;;;;;;;;;;4.00;100.00;98007.00;5068134;28;19971;-73
2022/11/12 06:49:51;;;;;;;;;;;;;;;4.01;100.00;98003.44;5068410;28;20409;-73
2022/11/12 06:52:17;;;;;;;;;;;;;;;3.99;100.00;98000.16;5060759;28;20006;-73
2022/11/12 06:54:43;;;;;;;;;;;;;;;4.02;100.00;98010.28;5063146;28;20356;-73
2022/11/12 06:57:09;;;;;;;;;;;;;;;4.05;100.00;98000.47;5045714;28;19966;-73
2022/11/12 06:59:35;;;;;;;;;;;;;;;4.10;100.00;98004.41;5064099;28;20384;-72
2022/11/12 07:02:01;;;;;;;;;;;;;;;4.15;100.00;98007.41;5067376;28;19958;-73
2022/11/12 07:04:27;;;;;;;;;;;;;;;4.18;100.00;98000.16;5063250;28;19981;-73
2022/11/12 07:06:53;;;;;;;;;;;;;;;4.19;100.00;97996.59;5064034;28;19968;-73
2022/11/12 07:09:19;;;;;;;;;;;;;;;4.22;100.00;98004.13;5062636;28;19978;-73
2022/11/12 07:11:44;;;;;;;;;;;;;;;4.24;100.00;97990.97;5065055;28;20395;-73
2022/11/12 07:14:10;;;;;;;;;;;;;;;4.24;100.00;98007.41;5049858;28;19966;-72
2022/11/12 07:16:36;;;;;;;;;;;;;;;4.28;100.00;98010.53;5063529;28;19960;-73
2022/11/12 07:19:02;;;;;;;;;;;;;;;4.27;100.00;98014.09;5062843;28;20048;-72
2022/11/12 07:21:28;;;;;;;;;;;;;;;4.25;100.00;98011.63;5066878;28;20050;-72
2022/11/12 07:23:54;;;;;;;;;;;;;;;4.21;100.00;98023.25;5063006;28;19957;-73
2022/11/12 07:26:21;;;;;;;;;;;;;;;4.14;100.00;98029.16;5064603;28;20010;-72
2022/11/12 07:28:49;;;;;;;;;;;;;;;4.11;100.00;98022.44;5059607;28;19956;-73
2022/11/12 07:31:15;;;;;;;;;;;;;;;4.06;100.00;98009.06;5067466;28;19959;-72
2022/11/12 07:33:41;;;;;;;;;;;;;;;4.00;100.00;98000.03;5063163;28;19958;-73
2022/11/12 07:36:17;;;;;;;;;;;;;;;3.98;100.00;97986.38;5067093;28;19963;-72
2022/11/12 07:38:43;;;;;;;;;;;;;;;3.95;100.00;97983.22;5055212;28;19959;-72
2022/11/12 07:41:10;;;;;;;;;;;;;;;3.92;100.00;97997.31;5059649;28;19984;-73
2022/11/12 07:43:36;;;;;;;;;;;;;;;3.98;100.00;98014.94;5064433;28;20310;-73
2022/11/12 07:46:03;;;;;;;;;;;;;;;3.96;100.00;98006.44;5061203;28;19967;-73
2022/11/12 07:48:29;;;;;;;;;;;;;;;3.95;100.00;98006.59;5064496;28;19960;-72
2022/11/12 07:50:59;;;;;;;;;;;;;;;3.92;100.00;98006.88;5065148;28;19949;-74
2022/11/12 07:53:25;;;;;;;;;;;;;;;3.94;100.00;97997.16;5059238;28;20425;-73
2022/11/12 07:55:51;;;;;;;;;;;;;;;4.02;100.00;97992.94;5061437;28;19951;-73
2022/11/12 07:58:17;;;;;;;;;;;;;;;4.13;100.00;97994.56;5065948;28;19954;-73
2022/11/12 08:00:43;;;;;;;;;;;;;;;4.20;100.00;97994.81;5065431;28;19957;-72
2022/11/12 08:03:09;;;;;;;;;;;;;;;4.18;100.00;97994.97;5059268;28;20005;-73
2022/11/12 08:05:35;;;;;;;;;;;;;;;4.15;100.00;97984.84;5063913;28;19953;-73
2022/11/12 08:08:01;;;;;;;;;;;;;;;4.13;100.00;97983.34;5065575;28;20436;-72
2022/11/12 08:10:27;;;;;;;;;;;;;;;4.17;100.00;97987.31;5066730;28;20001;-73
2022/11/12 08:12:54;;;;;;;;;;;;;;;4.19;100.00;97996.59;5065765;28;20053;-73
2022/11/12 08:15:20;;;;;;;;;;;;;;;4.14;100.00;97998.00;5061968;28;19955;-72
2022/11/12 08:17:46;;;;;;;;;;;;;;;4.05;100.00;98012.59;5064894;28;20309;-72
2022/11/12 08:20:12;;;;;;;;;;;;;;;4.05;100.00;98010.00;5045399;28;19962;-73
2022/11/12 08:22:38;;;;;;;;;;;;;;;4.06;100.00;98012.47;5063330;28;19962;-73
2022/11/12 08:25:04;;;;;;;;;;;;;;;4.09;100.00;98002.75;5050251;28;19948;-73
2022/11/12 08:27:30;;;;;;;;;;;;;;;4.10;100.00;98007.00;5064936;28;19968;-72
2022/11/12 08:29:56;;;;;;;;;;;;;;;4.16;100.00;98004.69;5060706;28;19995;-73
2022/11/12 08:32:22;;;;;;;;;;;;;;;4.27;100.00;98006.28;5056692;28;19965;-73
2022/11/12 08:34:47;;;;;;;;;;;;;;;4.32;100.00;98000.69;5059550;28;19966;-73
2022/11/12 08:37:13;;;;;;;;;;;;;;;4.26;100.00;98008.09;5065663;28;19984;-72
2022/11/12 08:39:39;;;;;;;;;;;;;;;4.26;100.00;98008.09;5063024;28;20038;-72
2022/11/12 08:42:05;;;;;;;;;;;;;;;4.31;100.00;98012.84;5062257;28;19983;-73
2022/11/12 08:44:31;;;;;;;;;;;;;;;4.37;100.00;98008.88;5062125;28;19957;-73
2022/11/12 08:46:58;;;;;;;;;;;;;;;4.46;100.00;98006.25;5063122;28;20017;-72
2022/11/12 08:49:24;;;;;;;;;;;;;;;4.46;100.00;98010.63;5065802;28;19969;-73
2022/11/12 08:51:50;;;;;;;;;;;;;;;4.45;100.00;98008.97;5052985;28;19954;-73
2022/11/12 08:54:16;;;;;;;;;;;;;;;4.40;100.00;98003.41;5065859;28;20310;-73
2022/11/12 08:56:42;;;;;;;;;;;;;;;4.34;100.00;98004.75;5063728;28;20423;-72
2022/11/12 08:59:08;;;;;;;;;;;;;;;4.34;100.00;98002.16;5058607;28;19955;-72
2022/11/12 09:01:34;;;;;;;;;;;;;;;4.32;100.00;97998.09;5063150;28;19954;-73
2022/11/12 09:04:00;;;;;;;;;;;;;;;4.25;100.00;97995.22;5067361;28;19951;-73
2022/11/12 09:06:26;;;;;;;;;;;;;;;4.21;100.00;98005.06;5042185;28;19969;-72
2022/11/12 09:08:51;;;;;;;;;;;;;;;4.15;100.00;98003.03;5050331;28;20040;-72
2022/11/12 09:11:17;;;;;;;;;;;;;;;4.22;100.00;97998.09;5068796;28;19970;-72
2022/11/12 09:13:43;;;;;;;;;;;;;;;4.38;100.00;97992.31;5062181;28;19965;-73
2022/11/12 09:16:09;;;;;;;;;;;;;;;4.55;100.00;97990.78;5052228;28;20044;-73
2022/11/12 09:18:36;;;;;;;;;;;;;;;4.63;100.00;97985.69;5067250;28;19959;-73
2022/11/12 09:21:11;;;;;;;;;;;;;;;4.67;100.00;97982.66;5069192;28;19956;-72
2022/11/12 09:23:37;;;;;;;;;;;;;;;4.62;100.00;97974.50;5041885;28;19955;-72
2022/11/12 09:26:03;;;;;;;;;;;;;;;4.66;100.00;97975.84;5060727;28;19980;-72
2022/11/12 09:28:29;;;;;;;;;;;;;;;4.77;100.00;97977.44;5065576;28;19954;-72
2022/11/12 09:30:55;;;;;;;;;;;;;;;4.83;100.00;97979.47;5068553;28;20013;-72
2022/11/12 09:33:22;;;;;;;;;;;;;;;4.90;100.00;97976.28;5071226;28;19959;-72
2022/11/12 09:35:49;;;;;;;;;;;;;;;4.94;100.00;97969.84;5067477;28;19954;-72
2022/11/12 09:38:15;;;;;;;;;;;;;;;4.99;100.00;97970.22;5063128;28;20139;-72
2022/11/12 09:40:41;;;;;;;;;;;;;;;5.07;100.00;97975.50;5065703;28;19950;-72
2022/11/12 09:43:15;;;;;;;;;;;;;;;5.15;100.00;97969.59;5049843;28;19961;-72
2022/11/12 09:45:41;;;;;;;;;;;;;;;5.22;100.00;97966.25;5071872;28;19959;-71
2022/11/12 09:48:11;;;;;;;;;;;;;;;5.28;100.00;97975.25;5062500;28;19982;-72
2022/11/12 09:50:41;;;;;;;;;;;;;;;5.29;100.00;97969.91;5063439;28;19952;-72
2022/11/12 09:53:14;;;;;;;;;;;;;;;5.29;100.00;97974.28;5067494;28;19956;-71
2022/11/12 09:55:42;;;;;;;;;;;;;;;5.35;100.00;97975.50;5066957;28;19948;-72
2022/11/12 09:58:11;;;;;;;;;;;;;;;5.41;100.00;97974.91;5068667;28;19960;-72
2022/11/12 10:00:39;;;;;;;;;;;;;;;5.44;100.00;97969.41;5063956;28;19952;-72
2022/11/12 10:03:05;;;;;;;;;;;;;;;5.50;100.00;97966.19;5062396;28;19961;-72
2022/11/12 10:05:41;;;;;;;;;;;;;;;5.60;100.00;97972.16;5071160;28;19962;-72
2022/11/12 10:08:18;;;;;;;;;;;;;;;5.70;100.00;97962.50;5062966;28;20493;-72
2022/11/12 10:10:44;;;;;;;;;;;;;;;5.81;100.00;97960.63;5059793;28;19969;-72
2022/11/12 10:13:30;;;;;;;;;;;;;;;5.92;100.00;97962.19;5061189;28;20043;-72
2022/11/12 10:19:04;;;;;;;;;;;;;;;6.17;100.00;97958.00;5031805;28;19951;-72
2022/11/12 10:21:48;;;;;;;;;;;;;;;6.29;100.00;97951.56;5066854;28;19962;-72
2022/11/12 10:24:14;;;;;;;;;;;;;;;6.34;100.00;97951.94;5041420;28;19964;-72
2022/11/12 10:26:40;;;;;;;;;;;;;;;6.41;100.00;97952.13;5067167;28;20345;-72
2022/11/12 10:29:09;;;;;;;;;;;;;;;6.64;100.00;97944.59;5064003;28;20054;-72
2022/11/12 10:31:35;;;;;;;;;;;;;;;6.78;100.00;97945.78;5065595;28;20430;-72
2022/11/12 10:34:14;;;;;;;;;;;;;;;6.87;100.00;97937.84;5060892;28;19962;-72
2022/11/12 10:36:42;;;;;;;;;;;;;;;6.98;100.00;97920.28;5047215;28;19959;-72
2022/11/12 10:39:08;;;;;;;;;;;;;;;7.11;100.00;97924.06;5060570;28;19969;-72
2022/11/12 10:41:34;;;;;;;;;;;;;;;7.11;100.00;97924.06;5064932;28;19955;-73
2022/11/12 10:44:01;;;;;;;;;;;;;;;7.14;100.00;97935.16;5064366;28;19992;-71
2022/11/12 10:46:28;;;;;;;;;;;;;;;7.21;100.00;97925.72;5064952;28;20409;-72
2022/11/12 10:48:59;;;;;;;;;;;;;;;7.30;100.00;97919.53;5064433;28;19955;-72
2022/11/12 10:51:27;;;;;;;;;;;;;;;7.43;100.00;97919.91;5065631;28;19973;-72
2022/11/12 10:53:53;;;;;;;;;;;;;;;7.51;100.00;97917.28;5058747;28;19950;-72
2022/11/12 10:56:27;;;;;;;;;;;;;;;7.60;100.00;97915.50;5063031;28;20425;-72
2022/11/12 10:59:11;;;;;;;;;;;;;;;7.66;100.00;97916.63;5063750;28;20329;-72
2022/11/12 11:01:37;;;;;;;;;;;;;;;7.73;100.00;97905.38;5066632;28;19959;-72
2022/11/12 11:04:03;;;;;;;;;;;;;;;7.82;100.00;97915.84;5067464;28;19964;-72
2022/11/12 11:06:29;;;;;;;;;;;;;;;7.93;100.00;97913.69;5063647;28;20009;-72
2022/11/12 11:09:15;;;;;;;;;;;;;;;8.04;100.00;97916.94;5064664;28;20145;-72
2022/11/12 11:11:50;;;;;;;;;;;;;;;8.09;100.00;97910.25;5060468;28;19957;-72
2022/11/12 11:14:22;;;;;;;;;;;;;;;8.12;100.00;97904.69;5064434;28;19961;-72
2022/11/12 11:17:11;;;;;;;;;;;;;;;8.22;100.00;97904.50;5066320;28;20416;-72
2022/11/12 11:19:38;;;;;;;;;;;;;;;8.34;100.00;97902.38;5062398;28;19958;-72
2022/11/12 11:22:04;;;;;;;;;;;;;;;8.38;100.00;97892.38;5063719;28;19955;-72
2022/11/12 11:24:35;;;;;;;;;;;;;;;8.45;100.00;97891.56;5069618;28;19957;-72
2022/11/12 11:27:07;;;;;;;;;;;;;;;8.49;100.00;97885.03;5066791;28;19978;-72
2022/11/12 11:29:42;;;;;;;;;;;;;;;8.53;100.00;97888.13;5059280;28;20330;-72
2022/11/12 11:32:14;;;;;;;;;;;;;;;8.53;100.00;97891.53;5057472;28;19960;-73
2022/11/12 11:34:43;;;;;;;;;;;;;;;8.59;100.00;97895.28;5067673;28;19943;-72
2022/11/12 11:37:21;;;;;;;;;;;;;;;8.68;100.00;97890.84;5064085;28;20335;-72
2022/11/12 11:40:05;;;;;;;;;;;;;;;8.79;100.00;97890.47;5059634;28;19957;-72
2022/11/12 11:42:40;;;;;;;;;;;;;;;8.86;100.00;97869.66;5061733;28;19951;-72
2022/11/12 11:45:12;;;;;;;;;;;;;;;8.92;100.00;97880.28;5060417;28;19959;-72
2022/11/12 11:47:52;;;;;;;;;;;;;;;9.04;100.00;97867.59;5066824;28;20334;-72
2022/11/12 11:50:24;;;;;;;;;;;;;;;9.11;100.00;97865.94;5061531;28;19954;-72
2022/11/12 11:53:05;;;;;;;;;;;;;;;9.22;100.00;97875.19;5063910;28;19954;-72
2022/11/12 11:55:34;;;;;;;;;;;;;;;9.34;100.00;97873.78;5059041;28;20303;-72
2022/11/12 11:58:04;;;;;;;;;;;;;;;9.46;100.00;97861.09;5062707;28;19950;-72
2022/11/12 12:00:52;;;;;;;;;;;;;;;9.57;100.00;97862.47;5056565;28;19948;-72
2022/11/12 12:03:29;;;;;;;;;;;;;;;9.69;100.00;97862.88;5060163;28;19952;-72
2022/11/12 12:06:07;;;;;;;;;;;;;;;9.79;100.00;97860.03;5063663;28;19961;-72
2022/11/12 12:08:53;;;;;;;;;;;;;;;9.89;100.00;97860.56;5061613;28;19973;-72
2022/11/12 12:11:22;;;;;;;;;;;;;;;9.93;100.00;97854.81;5027519;28;19961;-72
2022/11/12 12:13:54;;;;;;;;;;;;;;;9.99;100.00;97841.97;5061373;28;19946;-72
2022/11/12 12:16:23;;;;;;;;;;;;;;;10.03;100.00;97836.19;5061839;28;19944;-72
2022/11/12 12:18:57;;;;;;;;;;;;;;;10.04;100.00;97843.06;5061854;28;19955;-72
2022/11/12 12:21:25;;;;;;;;;;;;;;;10.06;100.00;97833.22;5068934;28;19950;-72
2022/11/12 12:24:13;;;;;;;;;;;;;;;10.10;100.00;97834.47;5067449;28;20446;-72
2022/11/12 12:26:41;;;;;;;;;;;;;;;10.06;98.49;97825.34;5011978;28;20429;-72
2022/11/12 12:29:11;;;;;;;;;;;;;;;9.98;100.00;97838.53;5060135;28;19964;-72
2022/11/12 12:31:40;;;;;;;;;;;;;;;9.95;100.00;97844.13;5062273;28;19950;-72
2022/11/12 12:34:25;;;;;;;;;;;;;;;9.95;100.00;97834.47;5069822;28;20419;-72
2022/11/12 12:36:53;;;;;;;;;;;;;;;9.98;100.00;97833.28;5064050;28;19963;-72
2022/11/12 12:39:24;;;;;;;;;;;;;;;10.00;100.00;97827.88;5063333;28;19959;-72
2022/11/12 12:41:59;;;;;;;;;;;;;;;10.01;100.00;97825.06;5061523;28;19971;-72
2022/11/12 12:44:58;;;;;;;;;;;;;;;10.06;100.00;97824.53;5066613;28;19959;-72
2022/11/12 12:47:15;;;;;;;;;;;;;;;10.14;100.00;97830.50;5059909;28;19966;-72
2022/11/12 12:49:42;;;;;;;;;;;;;;;10.20;100.00;97822.91;5066730;28;20329;-72
2022/11/12 12:52:10;;;;;;;;;;;;;;;10.24;100.00;97822.34;5066302;28;20413;-72
2022/11/12 12:54:39;;;;;;;;;;;;;;;10.23;98.06;97812.06;5071769;28;19954;-72
2022/11/12 12:57:23;;;;;;;;;;;;;;;10.24;100.00;97821.53;5065973;28;19954;-72
2022/11/12 12:59:49;;;;;;;;;;;;;;;10.25;100.00;97829.22;5069437;28;20413;-72
2022/11/12 13:02:19;;;;;;;;;;;;;;;10.25;100.00;97824.00;5061591;28;19997;-72
2022/11/12 13:04:51;;;;;;;;;;;;;;;10.24;100.00;97818.91;5071280;28;19952;-72
2022/11/12 13:07:18;;;;;;;;;;;;;;;10.20;99.78;97815.84;5051592;28;20652;-72
2022/11/12 13:09:44;;;;;;;;;;;;;;;10.21;100.00;97820.09;5065690;28;19975;-73
2022/11/12 13:14:36;;;;;;;;;;;;;;;10.31;100.00;97820.66;5071201;28;20386;-72
2022/11/12 13:17:03;;;;;;;;;;;;;;;10.30;100.00;97820.84;5050634;28;19960;-72
2022/11/12 13:19:33;;;;;;;;;;;;;;;10.30;100.00;97807.72;5061843;28;20341;-72